Carnival Liberty — HPYE — position and weather

sailwx.info

Track history (hours):
 
Tides and Currents Weather Stations Pressure Air Temp Water Temp Dewpoint Dewpoint Depression Visibility Wind Speed Wind Dir Waves Ship Positions

Carnival Liberty

Last reported at 2014-Aug-26 22:33 UTC. Time now 2014-Aug-28 05:25 UTC.
Position N 18°03' W 063°40'.

Type: Ship. MMSI: 371083000.

Date/timePositionNaut miles runAvg speedWind from/ knotsBaromVisibWave heightAir tempDewpointWater temp
2014-Aug-26 22:33N 18°03' W 063°40'1917.0
2014-Aug-26 21:25N 18°02' W 063°20'16 1.6
2014-Aug-26 11:17N 18°01' W 063°03'1 1.6
2014-Aug-26 10:25N 18°01' W 063°04'7 7.7
2014-Aug-26 09:32N 18°01' W 063°11'9 8.9
2014-Aug-26 08:31N 18°02' W 063°21'9 9.1
2014-Aug-26 07:33N 18°03' W 063°30'9 9.1
2014-Aug-26 06:33N 18°03' W 063°39'9 8.7
2014-Aug-26 05:33N 18°04' W 063°49'70129.7
2014-Aug-25 06:00N 21°24' W 075°42'386 7.7 130 / 241013.0 5.4 1.527.019.730.0
2014-Aug-23 03:33N 26°40' W 079°46'1616.1
2014-Aug-23 02:33N 26°56' W 079°49'60 2.9
2014-Aug-22 06:00N 27°54' W 080°06'31 8.6 200 / 111017.010.8 0.528.022.430.0
2014-Aug-22 02:21N 27°26' W 079°49'8 9.9
2014-Aug-22 01:33N 27°20' W 079°45'2315.1
2014-Aug-22 00:00N 27°00' W 079°30'4 7.8 999 / 51021.0 29.024.930.0
2014-Aug-21 23:31N 27°02' W 079°33'10 9.9
2014-Aug-21 22:30N 26°54' W 079°27'10 9.9
2014-Aug-21 21:31N 26°46' W 079°21'2410.5
2014-Aug-21 19:14N 26°25' W 079°07'13710.4
2014-Aug-21 06:00N 25°42' W 076°42'24 0.5 130 / 141019.010.8 1.029.020.431.0
2014-Aug-19 06:00N 25°24' W 077°00'162 7.5 160 / 111017.0 5.4 0.528.020.931.0
2014-Aug-18 08:29N 26°58' W 079°26'8 8.6
2014-Aug-18 07:32N 27°05' W 079°31'  
Track history (hours):
 
Tides and Currents Weather Stations Pressure Air Temp Water Temp Dewpoint Dewpoint Depression Visibility Wind Speed Wind Dir Waves Ship Positions

Carnival Liberty

Last reported at 2014-Aug-26 22:33 UTC. Time now 2014-Aug-28 05:25 UTC.
Position N 18°03' W 063°40'.

Type: Ship. MMSI: 371083000.

Date/timePositionNaut miles runAvg speedWind from/ knotsBaromVisibWave heightAir tempDewpointWater temp
2014-Aug-26 22:33N 18°03' W 063°40'1917.0
2014-Aug-26 21:25N 18°02' W 063°20'16 1.6
2014-Aug-26 11:17N 18°01' W 063°03'1 1.6
2014-Aug-26 10:25N 18°01' W 063°04'7 7.7
2014-Aug-26 09:32N 18°01' W 063°11'9 8.9
2014-Aug-26 08:31N 18°02' W 063°21'9 9.1
2014-Aug-26 07:33N 18°03' W 063°30'9 9.1
2014-Aug-26 06:33N 18°03' W 063°39'9 8.7
2014-Aug-26 05:33N 18°04' W 063°49'70129.7
2014-Aug-25 06:00N 21°24' W 075°42'386 7.7 130 / 241013.0 5.4 1.527.019.730.0
2014-Aug-23 03:33N 26°40' W 079°46'1616.1
2014-Aug-23 02:33N 26°56' W 079°49'60 2.9
2014-Aug-22 06:00N 27°54' W 080°06'31 8.6 200 / 111017.010.8 0.528.022.430.0
2014-Aug-22 02:21N 27°26' W 079°49'8 9.9
2014-Aug-22 01:33N 27°20' W 079°45'2315.1
2014-Aug-22 00:00N 27°00' W 079°30'4 7.8 999 / 51021.0 29.024.930.0
2014-Aug-21 23:31N 27°02' W 079°33'10 9.9
2014-Aug-21 22:30N 26°54' W 079°27'10 9.9
2014-Aug-21 21:31N 26°46' W 079°21'2410.5
2014-Aug-21 19:14N 26°25' W 079°07'13710.4
2014-Aug-21 06:00N 25°42' W 076°42'24 0.5 130 / 141019.010.8 1.029.020.431.0
2014-Aug-19 06:00N 25°24' W 077°00'162 7.5 160 / 111017.0 5.4 0.528.020.931.0
2014-Aug-18 08:29N 26°58' W 079°26'8 8.6
2014-Aug-18 07:32N 27°05' W 079°31'  

Dump ship's entire track history